sensor_id;sensor_type;location;lat;lon;timestamp;pressure;altitude;pressure_sealevel;temperature;humidity
5703;BME280;2876;51.738;10.050;2023-04-28T00:03:19;99303.41;;;7.32;66.42
5703;BME280;2876;51.738;10.050;2023-04-28T00:09:22;99293.72;;;7.31;66.85
5703;BME280;2876;51.738;10.050;2023-04-28T00:15:24;99285.03;;;7.52;66.37
5703;BME280;2876;51.738;10.050;2023-04-28T00:21:26;99267.88;;;7.69;65.73
5703;BME280;2876;51.738;10.050;2023-04-28T00:27:29;99272.47;;;7.75;63.59
5703;BME280;2876;51.738;10.050;2023-04-28T00:33:31;99272.00;;;7.72;64.59
5703;BME280;2876;51.738;10.050;2023-04-28T00:39:33;99263.19;;;7.86;63.42
5703;BME280;2876;51.738;10.050;2023-04-28T00:45:35;99259.78;;;7.77;64.19
5703;BME280;2876;51.738;10.050;2023-04-28T00:51:37;99255.34;;;7.84;63.20
5703;BME280;2876;51.738;10.050;2023-04-28T00:57:39;99248.19;;;8.00;61.96
5703;BME280;2876;51.738;10.050;2023-04-28T01:03:42;99237.09;;;8.03;62.28
5703;BME280;2876;51.738;10.050;2023-04-28T01:09:45;99230.88;;;7.96;62.96
5703;BME280;2876;51.738;10.050;2023-04-28T01:15:49;99219.13;;;8.11;62.76
5703;BME280;2876;51.738;10.050;2023-04-28T01:21:51;99201.47;;;8.10;61.38
5703;BME280;2876;51.738;10.050;2023-04-28T01:27:53;99201.03;;;7.92;62.10
5703;BME280;2876;51.738;10.050;2023-04-28T01:33:55;99205.16;;;7.95;61.31
5703;BME280;2876;51.738;10.050;2023-04-28T01:39:57;99185.56;;;7.87;61.74
5703;BME280;2876;51.738;10.050;2023-04-28T01:46:00;99195.59;;;7.71;63.50
5703;BME280;2876;51.738;10.050;2023-04-28T01:52:02;99187.97;;;7.68;63.18
5703;BME280;2876;51.738;10.050;2023-04-28T01:58:04;99183.19;;;7.63;63.37
5703;BME280;2876;51.738;10.050;2023-04-28T02:04:06;99182.44;;;7.69;62.95
5703;BME280;2876;51.738;10.050;2023-04-28T02:10:09;99170.00;;;7.61;64.40
5703;BME280;2876;51.738;10.050;2023-04-28T02:16:11;99177.41;;;7.59;64.95
5703;BME280;2876;51.738;10.050;2023-04-28T02:22:13;99178.13;;;7.68;63.52
5703;BME280;2876;51.738;10.050;2023-04-28T02:28:15;99152.72;;;7.57;64.90
5703;BME280;2876;51.738;10.050;2023-04-28T02:34:16;99128.53;;;7.59;63.69
5703;BME280;2876;51.738;10.050;2023-04-28T02:40:19;99119.41;;;7.53;64.55
5703;BME280;2876;51.738;10.050;2023-04-28T02:46:21;99119.56;;;7.67;63.27
5703;BME280;2876;51.738;10.050;2023-04-28T02:52:23;99112.53;;;7.59;64.59
5703;BME280;2876;51.738;10.050;2023-04-28T02:58:25;99110.56;;;7.53;64.59
5703;BME280;2876;51.738;10.050;2023-04-28T03:04:27;99104.31;;;7.60;65.27
5703;BME280;2876;51.738;10.050;2023-04-28T03:10:29;99099.03;;;7.67;65.64
5703;BME280;2876;51.738;10.050;2023-04-28T03:16:31;99096.28;;;7.75;64.78
5703;BME280;2876;51.738;10.050;2023-04-28T03:22:34;99095.81;;;7.72;65.48
5703;BME280;2876;51.738;10.050;2023-04-28T03:28:36;99088.09;;;7.77;64.69
5703;BME280;2876;51.738;10.050;2023-04-28T03:34:38;99069.72;;;7.88;64.66
5703;BME280;2876;51.738;10.050;2023-04-28T03:40:40;99070.66;;;7.81;65.42
5703;BME280;2876;51.738;10.050;2023-04-28T03:46:42;99062.09;;;7.85;65.32
5703;BME280;2876;51.738;10.050;2023-04-28T03:52:44;99058.38;;;8.01;65.79
5703;BME280;2876;51.738;10.050;2023-04-28T03:58:46;99054.09;;;8.07;65.03
5703;BME280;2876;51.738;10.050;2023-04-28T04:04:48;99061.09;;;8.29;64.31
5703;BME280;2876;51.738;10.050;2023-04-28T04:10:50;99056.09;;;8.20;64.28
5703;BME280;2876;51.738;10.050;2023-04-28T04:16:53;99045.91;;;8.30;64.24
5703;BME280;2876;51.738;10.050;2023-04-28T04:22:56;99050.19;;;8.24;64.99
5703;BME280;2876;51.738;10.050;2023-04-28T04:28:58;99044.97;;;8.37;65.15
5703;BME280;2876;51.738;10.050;2023-04-28T04:35:00;99030.59;;;8.38;64.60
5703;BME280;2876;51.738;10.050;2023-04-28T04:41:02;99036.44;;;8.49;63.91
5703;BME280;2876;51.738;10.050;2023-04-28T04:47:03;99037.22;;;8.43;63.82
5703;BME280;2876;51.738;10.050;2023-04-28T04:53:05;99037.75;;;8.59;63.60
5703;BME280;2876;51.738;10.050;2023-04-28T04:59:12;99038.72;;;8.52;63.50
5703;BME280;2876;51.738;10.050;2023-04-28T05:05:14;99032.56;;;8.79;63.50
5703;BME280;2876;51.738;10.050;2023-04-28T05:11:22;99023.22;;;8.69;63.31
5703;BME280;2876;51.738;10.050;2023-04-28T05:17:24;99036.38;;;8.98;62.87
5703;BME280;2876;51.738;10.050;2023-04-28T05:23:26;99043.72;;;8.89;64.62
5703;BME280;2876;51.738;10.050;2023-04-28T05:29:28;99041.94;;;9.03;64.39
5703;BME280;2876;51.738;10.050;2023-04-28T05:35:30;99024.13;;;9.17;64.10
5703;BME280;2876;51.738;10.050;2023-04-28T05:41:34;99029.78;;;9.35;63.15
5703;BME280;2876;51.738;10.050;2023-04-28T05:47:37;99031.28;;;9.51;63.19
5703;BME280;2876;51.738;10.050;2023-04-28T05:53:39;99024.59;;;9.82;62.33
5703;BME280;2876;51.738;10.050;2023-04-28T05:59:41;99028.13;;;10.02;61.59
5703;BME280;2876;51.738;10.050;2023-04-28T06:05:44;99025.69;;;10.14;61.17
5703;BME280;2876;51.738;10.050;2023-04-28T06:11:46;99019.34;;;10.61;59.22
5703;BME280;2876;51.738;10.050;2023-04-28T06:17:48;99002.22;;;10.69;59.68
5703;BME280;2876;51.738;10.050;2023-04-28T06:23:50;98988.38;;;10.65;59.72
5703;BME280;2876;51.738;10.050;2023-04-28T06:29:52;98983.53;;;11.07;58.95
5703;BME280;2876;51.738;10.050;2023-04-28T06:35:54;98992.44;;;11.01;59.18
5703;BME280;2876;51.738;10.050;2023-04-28T06:41:56;98999.78;;;11.32;58.47
5703;BME280;2876;51.738;10.050;2023-04-28T06:47:58;98996.66;;;11.42;58.33
5703;BME280;2876;51.738;10.050;2023-04-28T06:54:00;98993.38;;;11.72;57.41
5703;BME280;2876;51.738;10.050;2023-04-28T07:00:03;98989.63;;;11.79;57.28
5703;BME280;2876;51.738;10.050;2023-04-28T07:06:05;98987.31;;;11.89;57.15
5703;BME280;2876;51.738;10.050;2023-04-28T07:12:07;98983.28;;;12.05;57.39
5703;BME280;2876;51.738;10.050;2023-04-28T07:18:09;98984.25;;;12.17;55.73
5703;BME280;2876;51.738;10.050;2023-04-28T07:24:11;98987.94;;;11.91;56.69
5703;BME280;2876;51.738;10.050;2023-04-28T07:30:13;99000.59;;;11.78;57.76
5703;BME280;2876;51.738;10.050;2023-04-28T07:36:28;98988.50;;;12.00;58.20
5703;BME280;2876;51.738;10.050;2023-04-28T07:42:30;98993.09;;;11.93;58.52
5703;BME280;2876;51.738;10.050;2023-04-28T07:48:33;98988.50;;;12.00;58.84
5703;BME280;2876;51.738;10.050;2023-04-28T07:54:36;98986.00;;;11.99;58.10
5703;BME280;2876;51.738;10.050;2023-04-28T08:00:38;98983.53;;;12.29;58.26
5703;BME280;2876;51.738;10.050;2023-04-28T08:06:42;98964.78;;;12.22;59.34
5703;BME280;2876;51.738;10.050;2023-04-28T08:12:43;98956.97;;;12.39;59.19
5703;BME280;2876;51.738;10.050;2023-04-28T08:18:46;98939.16;;;12.63;59.91
5703;BME280;2876;51.738;10.050;2023-04-28T08:24:48;98939.25;;;12.93;58.73
5703;BME280;2876;51.738;10.050;2023-04-28T08:30:49;98958.81;;;12.63;60.49
5703;BME280;2876;51.738;10.050;2023-04-28T08:36:52;98954.16;;;12.52;59.71
5703;BME280;2876;51.738;10.050;2023-04-28T08:42:54;98966.34;;;12.55;60.45
5703;BME280;2876;51.738;10.050;2023-04-28T08:48:59;98956.97;;;12.82;59.94
5703;BME280;2876;51.738;10.050;2023-04-28T08:55:10;98957.69;;;12.71;59.11
5703;BME280;2876;51.738;10.050;2023-04-28T09:01:13;98953.06;;;12.78;59.44
5703;BME280;2876;51.738;10.050;2023-04-28T09:07:15;98948.78;;;12.70;59.11
5703;BME280;2876;51.738;10.050;2023-04-28T09:13:26;98944.91;;;12.85;58.89
5703;BME280;2876;51.738;10.050;2023-04-28T09:19:36;98940.59;;;13.02;57.73
5703;BME280;2876;51.738;10.050;2023-04-28T09:25:38;98936.16;;;12.89;60.24
5703;BME280;2876;51.738;10.050;2023-04-28T09:31:41;98938.03;;;13.26;60.13
5703;BME280;2876;51.738;10.050;2023-04-28T09:37:43;98941.34;;;13.28;60.29
5703;BME280;2876;51.738;10.050;2023-04-28T09:43:45;98926.72;;;13.54;57.95
5703;BME280;2876;51.738;10.050;2023-04-28T09:49:59;98919.47;;;13.66;59.17
5703;BME280;2876;51.738;10.050;2023-04-28T09:56:03;98912.44;;;14.30;59.59
5703;BME280;2876;51.738;10.050;2023-04-28T10:02:06;98906.25;;;14.53;58.80
5703;BME280;2876;51.738;10.050;2023-04-28T10:08:28;98903.09;;;14.68;58.38
5703;BME280;2876;51.738;10.050;2023-04-28T10:14:30;98903.78;;;14.52;59.26
5703;BME280;2876;51.738;10.050;2023-04-28T10:20:33;98903.53;;;14.41;61.12
5703;BME280;2876;51.738;10.050;2023-04-28T10:27:08;98900.44;;;14.03;63.11
5703;BME280;2876;51.738;10.050;2023-04-28T10:39:16;98897.88;;;13.24;69.40
5703;BME280;2876;51.738;10.050;2023-04-28T10:51:57;98883.16;;;13.68;71.85
5703;BME280;2876;51.738;10.050;2023-04-28T10:58:30;98889.25;;;13.64;73.86
5703;BME280;2876;51.738;10.050;2023-04-28T11:05:12;98874.84;;;13.70;74.73
5703;BME280;2876;51.738;10.050;2023-04-28T11:11:17;98880.75;;;13.90;76.40
5703;BME280;2876;51.738;10.050;2023-04-28T11:17:39;98884.56;;;13.29;78.04
5703;BME280;2876;51.738;10.050;2023-04-28T11:23:42;98876.97;;;13.38;77.91
5703;BME280;2876;51.738;10.050;2023-04-28T11:29:44;98859.19;;;13.49;77.31
5703;BME280;2876;51.738;10.050;2023-04-28T11:35:49;98854.38;;;13.92;77.80
5703;BME280;2876;51.738;10.050;2023-04-28T11:41:51;98859.66;;;14.23;77.88
5703;BME280;2876;51.738;10.050;2023-04-28T11:47:53;98850.38;;;14.30;77.47
5703;BME280;2876;51.738;10.050;2023-04-28T11:53:55;98841.59;;;14.35;76.65
5703;BME280;2876;51.738;10.050;2023-04-28T12:00:14;98840.41;;;14.42;77.65
5703;BME280;2876;51.738;10.050;2023-04-28T12:06:20;98838.19;;;14.39;77.96
5703;BME280;2876;51.738;10.050;2023-04-28T12:12:30;98834.09;;;14.37;77.50
5703;BME280;2876;51.738;10.050;2023-04-28T12:18:57;98843.94;;;14.55;77.29
5703;BME280;2876;51.738;10.050;2023-04-28T12:25:06;98828.56;;;14.43;76.17
5703;BME280;2876;51.738;10.050;2023-04-28T12:31:09;98832.41;;;14.71;76.46
5703;BME280;2876;51.738;10.050;2023-04-28T12:37:11;98825.00;;;14.78;75.23
5703;BME280;2876;51.738;10.050;2023-04-28T12:43:14;98821.72;;;14.76;73.46
5703;BME280;2876;51.738;10.050;2023-04-28T12:49:16;98820.03;;;14.87;74.45
5703;BME280;2876;51.738;10.050;2023-04-28T12:55:18;98809.16;;;14.82;74.34
5703;BME280;2876;51.738;10.050;2023-04-28T13:01:20;98792.38;;;15.08;74.30
5703;BME280;2876;51.738;10.050;2023-04-28T13:07:22;98778.19;;;15.63;71.37
5703;BME280;2876;51.738;10.050;2023-04-28T13:13:24;98777.03;;;15.93;70.80
5703;BME280;2876;51.738;10.050;2023-04-28T13:19:26;98781.94;;;15.62;70.90
5703;BME280;2876;51.738;10.050;2023-04-28T13:25:29;98778.03;;;15.70;71.28
5703;BME280;2876;51.738;10.050;2023-04-28T13:31:31;98785.94;;;16.10;70.13
5703;BME280;2876;51.738;10.050;2023-04-28T13:37:33;98788.03;;;16.25;70.76
5703;BME280;2876;51.738;10.050;2023-04-28T13:43:36;98787.72;;;15.83;70.47
5703;BME280;2876;51.738;10.050;2023-04-28T13:49:38;98782.63;;;15.86;71.40
5703;BME280;2876;51.738;10.050;2023-04-28T13:55:40;98780.72;;;16.04;70.94
5703;BME280;2876;51.738;10.050;2023-04-28T14:01:42;98781.88;;;15.74;70.75
5703;BME280;2876;51.738;10.050;2023-04-28T14:07:45;98785.34;;;15.69;71.61
5703;BME280;2876;51.738;10.050;2023-04-28T14:13:46;98770.91;;;15.81;72.15
5703;BME280;2876;51.738;10.050;2023-04-28T14:19:48;98783.97;;;15.67;72.72
5703;BME280;2876;51.738;10.050;2023-04-28T14:25:54;98774.06;;;15.61;73.02
5703;BME280;2876;51.738;10.050;2023-04-28T14:31:59;98763.19;;;15.56;73.56
5703;BME280;2876;51.738;10.050;2023-04-28T14:38:02;98765.59;;;15.86;72.38
5703;BME280;2876;51.738;10.050;2023-04-28T14:44:04;98753.03;;;15.80;72.83
5703;BME280;2876;51.738;10.050;2023-04-28T14:50:08;98750.66;;;15.83;72.92
5703;BME280;2876;51.738;10.050;2023-04-28T14:56:14;98738.53;;;15.86;73.39
5703;BME280;2876;51.738;10.050;2023-04-28T15:02:20;98738.28;;;15.70;73.09
5703;BME280;2876;51.738;10.050;2023-04-28T15:08:28;98729.03;;;15.83;72.83
5703;BME280;2876;51.738;10.050;2023-04-28T15:14:31;98720.16;;;15.88;73.06
5703;BME280;2876;51.738;10.050;2023-04-28T15:20:34;98721.22;;;16.04;72.58
5703;BME280;2876;51.738;10.050;2023-04-28T15:26:38;98721.09;;;16.37;70.89
5703;BME280;2876;51.738;10.050;2023-04-28T15:32:39;98725.28;;;16.06;72.87
5703;BME280;2876;51.738;10.050;2023-04-28T15:38:42;98733.75;;;15.93;71.74
5703;BME280;2876;51.738;10.050;2023-04-28T15:44:45;98724.28;;;15.73;72.88
5703;BME280;2876;51.738;10.050;2023-04-28T15:50:48;98719.38;;;15.70;72.68
5703;BME280;2876;51.738;10.050;2023-04-28T15:56:50;98711.09;;;15.77;72.74
5703;BME280;2876;51.738;10.050;2023-04-28T16:02:51;98712.81;;;15.50;75.02
5703;BME280;2876;51.738;10.050;2023-04-28T16:08:54;98712.47;;;15.29;75.32
5703;BME280;2876;51.738;10.050;2023-04-28T16:14:58;98709.53;;;15.14;75.94
5703;BME280;2876;51.738;10.050;2023-04-28T16:21:00;98715.00;;;14.85;77.32
5703;BME280;2876;51.738;10.050;2023-04-28T16:27:02;98721.38;;;14.96;77.90
5703;BME280;2876;51.738;10.050;2023-04-28T16:33:04;98707.03;;;14.79;78.50
5703;BME280;2876;51.738;10.050;2023-04-28T16:39:06;98700.50;;;14.91;78.99
5703;BME280;2876;51.738;10.050;2023-04-28T16:45:09;98702.94;;;14.76;79.28
5703;BME280;2876;51.738;10.050;2023-04-28T16:51:11;98700.09;;;14.83;79.27
5703;BME280;2876;51.738;10.050;2023-04-28T16:57:13;98697.72;;;15.03;78.93
5703;BME280;2876;51.738;10.050;2023-04-28T17:03:15;98679.41;;;15.05;79.27
5703;BME280;2876;51.738;10.050;2023-04-28T17:09:19;98684.56;;;15.23;79.67
5703;BME280;2876;51.738;10.050;2023-04-28T17:15:21;98682.69;;;15.41;78.42
5703;BME280;2876;51.738;10.050;2023-04-28T17:21:24;98681.13;;;15.11;79.67
5703;BME280;2876;51.738;10.050;2023-04-28T17:27:29;98677.53;;;15.06;80.18
5703;BME280;2876;51.738;10.050;2023-04-28T17:33:31;98663.75;;;14.74;81.31
5703;BME280;2876;51.738;10.050;2023-04-28T17:39:33;98668.81;;;14.70;81.43
5703;BME280;2876;51.738;10.050;2023-04-28T17:45:35;98668.53;;;14.43;82.70
5703;BME280;2876;51.738;10.050;2023-04-28T17:51:37;98668.81;;;14.30;83.50
5703;BME280;2876;51.738;10.050;2023-04-28T17:57:39;98679.84;;;14.40;83.96
5703;BME280;2876;51.738;10.050;2023-04-28T18:03:41;98671.75;;;13.88;85.92
5703;BME280;2876;51.738;10.050;2023-04-28T18:09:44;98664.13;;;13.85;86.11
5703;BME280;2876;51.738;10.050;2023-04-28T18:15:46;98657.84;;;14.08;86.65
5703;BME280;2876;51.738;10.050;2023-04-28T18:21:48;98661.31;;;13.80;87.58
5703;BME280;2876;51.738;10.050;2023-04-28T18:27:50;98664.41;;;13.60;88.54
5703;BME280;2876;51.738;10.050;2023-04-28T18:33:52;98650.03;;;13.31;89.00
5703;BME280;2876;51.738;10.050;2023-04-28T18:39:55;98656.41;;;12.94;90.08
5703;BME280;2876;51.738;10.050;2023-04-28T18:45:58;98664.63;;;12.69;90.51
5703;BME280;2876;51.738;10.050;2023-04-28T18:52:04;98662.78;;;12.40;90.86
5703;BME280;2876;51.738;10.050;2023-04-28T18:58:06;98678.19;;;12.33;91.95
5703;BME280;2876;51.738;10.050;2023-04-28T19:04:08;98677.22;;;12.27;93.82
5703;BME280;2876;51.738;10.050;2023-04-28T19:10:11;98669.59;;;12.24;94.74
5703;BME280;2876;51.738;10.050;2023-04-28T19:16:13;98667.72;;;12.25;95.51
5703;BME280;2876;51.738;10.050;2023-04-28T19:22:33;98675.78;;;12.25;95.23
5703;BME280;2876;51.738;10.050;2023-04-28T19:28:35;98691.03;;;12.12;96.46
5703;BME280;2876;51.738;10.050;2023-04-28T19:34:37;98689.09;;;12.19;96.50
5703;BME280;2876;51.738;10.050;2023-04-28T19:40:39;98688.00;;;12.39;97.16
5703;BME280;2876;51.738;10.050;2023-04-28T19:46:41;98679.31;;;12.25;97.20
5703;BME280;2876;51.738;10.050;2023-04-28T19:52:46;98689.63;;;12.10;97.87
5703;BME280;2876;51.738;10.050;2023-04-28T19:58:48;98691.66;;;12.14;97.94
5703;BME280;2876;51.738;10.050;2023-04-28T20:04:50;98681.31;;;12.30;98.03
5703;BME280;2876;51.738;10.050;2023-04-28T20:10:52;98691.56;;;12.21;98.88
5703;BME280;2876;51.738;10.050;2023-04-28T20:16:56;98686.13;;;12.39;99.16
5703;BME280;2876;51.738;10.050;2023-04-28T20:22:58;98704.31;;;12.26;99.65
5703;BME280;2876;51.738;10.050;2023-04-28T20:29:00;98686.03;;;12.16;100.00
5703;BME280;2876;51.738;10.050;2023-04-28T20:35:02;98692.06;;;12.30;100.00
5703;BME280;2876;51.738;10.050;2023-04-28T20:41:06;98697.84;;;12.15;100.00
5703;BME280;2876;51.738;10.050;2023-04-28T20:47:09;98701.97;;;12.17;100.00
5703;BME280;2876;51.738;10.050;2023-04-28T20:53:11;98686.41;;;12.19;100.00
5703;BME280;2876;51.738;10.050;2023-04-28T20:59:13;98700.13;;;12.30;100.00
5703;BME280;2876;51.738;10.050;2023-04-28T21:05:15;98703.00;;;11.98;100.00
5703;BME280;2876;51.738;10.050;2023-04-28T21:11:19;98698.56;;;11.85;100.00
5703;BME280;2876;51.738;10.050;2023-04-28T21:17:21;98700.44;;;12.22;100.00
5703;BME280;2876;51.738;10.050;2023-04-28T21:23:23;98699.19;;;12.06;100.00
5703;BME280;2876;51.738;10.050;2023-04-28T21:29:26;98696.25;;;12.07;100.00
5703;BME280;2876;51.738;10.050;2023-04-28T21:35:28;98703.22;;;12.15;100.00
5703;BME280;2876;51.738;10.050;2023-04-28T21:41:30;98709.56;;;12.21;100.00
5703;BME280;2876;51.738;10.050;2023-04-28T21:47:32;98704.09;;;12.27;100.00
5703;BME280;2876;51.738;10.050;2023-04-28T21:53:34;98716.25;;;12.30;100.00
5703;BME280;2876;51.738;10.050;2023-04-28T21:59:36;98702.50;;;12.38;100.00
5703;BME280;2876;51.738;10.050;2023-04-28T22:05:39;98707.22;;;12.42;100.00
5703;BME280;2876;51.738;10.050;2023-04-28T22:11:42;98707.81;;;12.44;100.00
5703;BME280;2876;51.738;10.050;2023-04-28T22:17:44;98704.25;;;12.62;100.00
5703;BME280;2876;51.738;10.050;2023-04-28T22:23:46;98708.31;;;12.83;100.00
5703;BME280;2876;51.738;10.050;2023-04-28T22:29:48;98712.31;;;12.92;100.00
5703;BME280;2876;51.738;10.050;2023-04-28T22:35:50;98713.75;;;12.95;100.00
5703;BME280;2876;51.738;10.050;2023-04-28T22:41:52;98714.56;;;13.07;100.00
5703;BME280;2876;51.738;10.050;2023-04-28T22:47:55;98719.25;;;13.12;100.00
5703;BME280;2876;51.738;10.050;2023-04-28T22:53:57;98712.94;;;13.06;100.00
5703;BME280;2876;51.738;10.050;2023-04-28T22:59:59;98714.47;;;13.14;100.00
5703;BME280;2876;51.738;10.050;2023-04-28T23:06:01;98716.88;;;13.34;100.00
5703;BME280;2876;51.738;10.050;2023-04-28T23:12:03;98708.31;;;13.25;100.00
5703;BME280;2876;51.738;10.050;2023-04-28T23:18:05;98717.56;;;13.29;100.00
5703;BME280;2876;51.738;10.050;2023-04-28T23:24:08;98701.03;;;13.26;100.00
5703;BME280;2876;51.738;10.050;2023-04-28T23:30:11;98701.78;;;13.44;100.00
5703;BME280;2876;51.738;10.050;2023-04-28T23:36:13;98716.56;;;13.54;100.00
5703;BME280;2876;51.738;10.050;2023-04-28T23:42:15;98712.28;;;13.34;100.00
5703;BME280;2876;51.738;10.050;2023-04-28T23:48:18;98701.28;;;13.24;100.00
5703;BME280;2876;51.738;10.050;2023-04-28T23:54:20;98699.56;;;13.41;100.00
